Time;durP1;ratioP1;P1;durP2;ratioP2;P2;SDS_P1;SDS_P2;PMS_P1;PMS_P2;Temp;Humidity;BMP_temperature;BMP_pressure;BME280_temperature;BME280_humidity;BME280_pressure;Samples;Min_cycle;Max_cycle;Signal;HPM_P1;HPM_P2
2021/10/03 00:00:20;;;;;;;44.57;18.90;;;6.20;99.90;;;;;;4122549;28;20030;-65
2021/10/03 00:02:22;;;;;;;36.83;17.37;;;6.10;99.90;;;;;;4124571;28;20030;-66
2021/10/03 00:04:27;;;;;;;32.00;17.23;;;6.10;99.90;;;;;;4123661;28;20085;-67
2021/10/03 00:06:29;;;;;;;32.30;17.97;;;6.00;99.90;;;;;;4124520;28;20505;-66
2021/10/03 00:08:30;;;;;;;29.83;16.10;;;5.90;99.90;;;;;;4123542;28;20101;-65
2021/10/03 00:10:32;;;;;;;34.90;16.60;;;5.80;99.90;;;;;;4123708;28;20093;-67
2021/10/03 00:12:33;;;;;;;25.27;14.67;;;5.70;99.90;;;;;;4123451;28;20499;-66
2021/10/03 00:14:34;;;;;;;26.93;14.80;;;5.60;99.90;;;;;;4123598;28;20030;-67
2021/10/03 00:16:36;;;;;;;26.77;15.10;;;5.60;99.90;;;;;;4123031;28;20081;-67
2021/10/03 00:18:38;;;;;;;29.40;16.20;;;5.60;99.90;;;;;;4122263;28;20034;-66
2021/10/03 00:20:40;;;;;;;27.83;15.53;;;5.60;99.90;;;;;;4123742;28;20182;-66
2021/10/03 00:22:42;;;;;;;28.47;15.37;;;5.70;99.90;;;;;;4123285;28;20046;-67
2021/10/03 00:24:43;;;;;;;31.90;15.40;;;5.70;99.90;;;;;;4123597;28;20283;-66
2021/10/03 00:26:44;;;;;;;28.43;16.00;;;5.80;99.90;;;;;;4123442;28;20560;-66
2021/10/03 00:28:45;;;;;;;24.83;15.37;;;5.80;99.90;;;;;;4124758;28;20038;-66
2021/10/03 00:30:46;;;;;;;30.87;16.47;;;5.80;99.90;;;;;;4123386;28;20043;-67
2021/10/03 00:32:47;;;;;;;31.33;16.37;;;5.80;99.90;;;;;;4124104;28;20060;-67
2021/10/03 00:34:49;;;;;;;28.97;15.87;;;5.80;99.90;;;;;;4123449;28;20034;-66
2021/10/03 00:36:50;;;;;;;32.47;17.57;;;5.70;99.90;;;;;;4123764;28;20046;-66
2021/10/03 00:38:51;;;;;;;29.30;16.90;;;5.70;99.90;;;;;;4123400;28;20054;-66
2021/10/03 00:40:52;;;;;;;28.53;16.30;;;5.60;99.90;;;;;;4123692;28;20124;-67
2021/10/03 00:42:53;;;;;;;25.70;15.30;;;5.60;99.90;;;;;;4122635;28;20026;-66
2021/10/03 00:44:54;;;;;;;28.53;16.23;;;5.70;99.90;;;;;;4123164;28;20814;-66
2021/10/03 00:46:56;;;;;;;29.47;15.50;;;5.80;99.90;;;;;;4123573;28;20101;-66
2021/10/03 00:48:57;;;;;;;31.83;15.77;;;5.80;99.90;;;;;;4123224;28;20030;-66
2021/10/03 00:50:58;;;;;;;29.50;16.10;;;5.80;99.90;;;;;;4123044;28;20121;-65
2021/10/03 00:52:59;;;;;;;33.27;15.97;;;5.90;99.90;;;;;;4122520;28;20088;-67
2021/10/03 00:55:01;;;;;;;35.53;17.10;;;5.90;99.90;;;;;;4122864;28;20477;-67
2021/10/03 00:57:03;;;;;;;33.70;16.83;;;5.90;99.90;;;;;;4123069;28;20561;-66
2021/10/03 00:59:05;;;;;;;29.47;15.93;;;5.90;99.90;;;;;;4123777;28;20034;-66
2021/10/03 01:01:06;;;;;;;29.50;15.70;;;5.80;99.90;;;;;;4123268;28;20030;-66
2021/10/03 01:03:08;;;;;;;29.13;15.73;;;5.80;99.90;;;;;;4123476;28;20105;-67
2021/10/03 01:05:10;;;;;;;26.67;14.30;;;5.80;99.90;;;;;;4122774;28;20088;-65
2021/10/03 01:07:11;;;;;;;26.67;14.93;;;5.80;99.90;;;;;;4123701;28;20038;-65
2021/10/03 01:09:13;;;;;;;33.00;15.73;;;5.80;99.90;;;;;;4121860;28;20093;-68
2021/10/03 01:11:14;;;;;;;26.33;14.70;;;5.80;99.90;;;;;;4123099;28;20042;-67
2021/10/03 01:13:16;;;;;;;25.80;14.13;;;5.70;99.90;;;;;;4123011;28;20065;-67
2021/10/03 01:15:17;;;;;;;27.20;14.77;;;5.70;99.90;;;;;;4118058;28;20042;-65
2021/10/03 01:17:18;;;;;;;27.53;15.27;;;5.70;99.90;;;;;;4123763;28;20085;-66
2021/10/03 01:19:20;;;;;;;25.63;14.87;;;5.70;99.90;;;;;;4122679;28;20364;-67
2021/10/03 01:21:21;;;;;;;30.07;16.50;;;5.70;99.90;;;;;;4122881;28;20027;-66
2021/10/03 01:23:22;;;;;;;29.27;16.50;;;5.60;99.90;;;;;;4123136;28;20447;-67
2021/10/03 01:25:23;;;;;;;35.30;16.70;;;5.60;99.90;;;;;;4123401;28;20454;-66
2021/10/03 01:27:25;;;;;;;31.93;16.70;;;5.60;99.90;;;;;;4122541;28;20319;-67
2021/10/03 01:29:28;;;;;;;32.43;16.63;;;5.50;99.90;;;;;;4123876;28;20030;-68
2021/10/03 01:31:31;;;;;;;33.97;16.50;;;5.50;99.90;;;;;;4122797;28;20073;-67
2021/10/03 01:33:32;;;;;;;31.77;17.10;;;5.50;99.90;;;;;;4123569;28;20408;-67
2021/10/03 01:35:33;;;;;;;32.60;17.97;;;5.50;99.90;;;;;;4123041;28;20042;-67
2021/10/03 01:37:36;;;;;;;28.97;14.73;;;5.50;99.90;;;;;;4121637;28;20085;-67
2021/10/03 01:39:39;;;;;;;28.43;15.20;;;5.50;99.90;;;;;;4123215;28;20050;-67
2021/10/03 01:41:40;;;;;;;30.07;14.57;;;5.40;99.90;;;;;;4123026;28;20267;-67
2021/10/03 01:43:41;;;;;;;28.93;14.90;;;5.40;99.90;;;;;;4123023;28;20272;-67
2021/10/03 01:45:43;;;;;;;25.17;14.00;;;5.40;99.90;;;;;;4122676;28;20093;-67
2021/10/03 01:48:22;;;;;;;24.23;14.03;;;5.30;99.90;;;;;;4122729;28;20883;-67
2021/10/03 01:50:24;;;;;;;24.50;14.67;;;5.40;99.90;;;;;;4121877;28;20867;-67
2021/10/03 01:52:25;;;;;;;26.33;13.87;;;5.40;99.90;;;;;;4122715;28;20326;-67
2021/10/03 01:54:26;;;;;;;24.60;12.83;;;5.40;99.90;;;;;;4122842;28;20046;-67
2021/10/03 01:56:30;;;;;;;23.63;13.17;;;5.40;99.90;;;;;;4123120;28;20470;-68
2021/10/03 01:58:34;;;;;;;22.77;12.40;;;5.40;99.90;;;;;;4122765;28;20380;-67
2021/10/03 02:00:38;;;;;;;28.87;14.07;;;5.30;99.90;;;;;;4122727;28;20518;-68
2021/10/03 02:02:39;;;;;;;25.73;13.17;;;5.30;99.90;;;;;;4122325;28;20173;-67
2021/10/03 02:04:40;;;;;;;23.00;13.00;;;5.30;99.90;;;;;;4126358;28;20118;-67
2021/10/03 02:06:46;;;;;;;23.53;13.53;;;5.20;99.90;;;;;;4125156;28;20038;-67
2021/10/03 02:08:56;;;;;;;27.90;14.43;;;5.20;99.90;;;;;;4124043;28;20042;-67
2021/10/03 02:10:57;;;;;;;27.13;15.20;;;5.20;99.90;;;;;;4125632;28;20397;-67
2021/10/03 02:12:58;;;;;;;25.33;13.73;;;5.20;99.90;;;;;;4126038;28;20268;-68
2021/10/03 02:15:00;;;;;;;23.20;13.63;;;5.10;99.90;;;;;;4124957;28;20280;-67
2021/10/03 02:17:02;;;;;;;28.17;15.30;;;5.00;99.90;;;;;;4125431;28;20518;-68
2021/10/03 02:19:03;;;;;;;24.47;14.00;;;5.00;99.90;;;;;;4125185;28;20338;-67
2021/10/03 02:21:06;;;;;;;27.63;13.77;;;4.90;99.90;;;;;;4125527;28;20334;-68
2021/10/03 02:23:09;;;;;;;21.07;12.63;;;4.90;99.90;;;;;;4124982;28;20280;-66
2021/10/03 02:25:11;;;;;;;22.00;12.53;;;4.90;99.90;;;;;;4125849;28;20038;-67
2021/10/03 02:27:12;;;;;;;18.97;12.07;;;4.90;99.90;;;;;;4123462;28;20280;-67
2021/10/03 02:29:13;;;;;;;22.07;13.23;;;5.00;99.90;;;;;;4126259;28;20279;-67
2021/10/03 02:31:15;;;;;;;19.90;11.77;;;5.10;99.90;;;;;;4125506;28;20296;-67
2021/10/03 02:33:16;;;;;;;24.73;12.80;;;5.10;99.90;;;;;;4125962;28;20276;-67
2021/10/03 02:35:17;;;;;;;25.03;13.83;;;5.10;99.90;;;;;;4125395;28;20680;-67
2021/10/03 02:37:18;;;;;;;28.20;15.03;;;5.10;99.90;;;;;;4125383;28;20276;-67
2021/10/03 02:39:20;;;;;;;26.93;14.17;;;5.10;99.90;;;;;;4124693;28;20350;-67
2021/10/03 02:41:22;;;;;;;27.97;14.10;;;5.10;99.90;;;;;;4124949;28;20435;-67
2021/10/03 02:43:25;;;;;;;23.70;15.13;;;5.10;99.90;;;;;;4126003;28;20330;-68
2021/10/03 02:45:27;;;;;;;25.83;14.13;;;5.10;99.90;;;;;;4125454;28;20276;-67
2021/10/03 02:47:29;;;;;;;24.47;13.07;;;5.10;99.90;;;;;;4125485;28;20609;-68
2021/10/03 02:49:30;;;;;;;22.40;12.60;;;5.10;99.90;;;;;;4124641;28;20276;-67
2021/10/03 02:51:31;;;;;;;24.13;13.43;;;5.10;99.90;;;;;;4125670;28;20929;-67
2021/10/03 02:53:33;;;;;;;24.03;13.00;;;5.10;99.90;;;;;;4124700;28;20315;-67
2021/10/03 02:55:35;;;;;;;25.50;13.70;;;5.10;99.90;;;;;;4125316;28;20339;-67
2021/10/03 02:57:36;;;;;;;24.67;12.60;;;5.00;99.90;;;;;;4124785;28;20310;-68
2021/10/03 02:59:38;;;;;;;21.57;12.80;;;5.00;99.90;;;;;;4125066;28;20288;-67
2021/10/03 03:01:39;;;;;;;25.60;12.73;;;5.00;99.90;;;;;;4125383;28;20280;-67
2021/10/03 03:03:40;;;;;;;22.37;12.47;;;5.00;99.90;;;;;;4124765;28;20272;-67
2021/10/03 03:05:41;;;;;;;30.00;12.60;;;5.10;99.90;;;;;;4124842;28;20323;-67
2021/10/03 03:07:42;;;;;;;24.03;11.37;;;5.10;99.90;;;;;;4124228;28;20601;-68
2021/10/03 03:09:43;;;;;;;22.37;11.50;;;5.10;99.90;;;;;;4124079;28;20046;-67
2021/10/03 03:11:45;;;;;;;21.47;12.20;;;5.10;99.90;;;;;;4124748;28;20038;-66
2021/10/03 03:13:46;;;;;;;25.97;11.43;;;5.10;99.90;;;;;;4124234;28;20287;-67
2021/10/03 03:15:47;;;;;;;22.10;11.60;;;5.10;99.90;;;;;;4122824;28;20826;-67
2021/10/03 03:17:48;;;;;;;21.43;11.40;;;5.10;99.90;;;;;;4124529;28;20049;-67
2021/10/03 03:19:49;;;;;;;20.00;11.57;;;5.10;99.90;;;;;;4124325;28;20256;-68
2021/10/03 03:21:50;;;;;;;20.63;11.67;;;5.10;99.90;;;;;;4124468;28;20331;-68
2021/10/03 03:23:52;;;;;;;21.10;11.13;;;5.00;99.90;;;;;;4124559;28;20359;-66
2021/10/03 03:25:53;;;;;;;19.77;10.67;;;5.00;99.90;;;;;;4124938;28;20264;-67
2021/10/03 03:27:54;;;;;;;23.70;11.40;;;4.90;99.90;;;;;;4124494;28;20260;-67
2021/10/03 03:29:55;;;;;;;21.77;10.83;;;4.90;99.90;;;;;;4125108;28;20267;-68
2021/10/03 03:31:56;;;;;;;19.83;11.43;;;4.90;99.90;;;;;;4124470;28;20342;-67
2021/10/03 03:33:57;;;;;;;20.13;11.33;;;4.90;99.90;;;;;;4124759;28;20085;-68
2021/10/03 03:35:59;;;;;;;20.00;9.97;;;4.90;99.90;;;;;;4124709;28;20764;-68
2021/10/03 03:38:00;;;;;;;32.40;14.40;;;4.80;99.90;;;;;;4124036;28;20276;-67
2021/10/03 03:40:02;;;;;;;19.50;11.00;;;4.70;99.90;;;;;;4124756;28;20284;-68
2021/10/03 03:42:04;;;;;;;19.40;11.13;;;4.70;99.90;;;;;;4124298;28;20752;-67
2021/10/03 03:44:05;;;;;;;21.67;10.93;;;4.70;99.90;;;;;;4124410;28;20272;-67
2021/10/03 03:46:06;;;;;;;21.50;11.83;;;4.70;99.90;;;;;;4124024;28;20276;-67
2021/10/03 03:48:07;;;;;;;20.37;11.27;;;4.70;99.90;;;;;;4124551;28;20335;-67
2021/10/03 03:50:11;;;;;;;18.17;10.53;;;4.70;99.90;;;;;;4123867;28;20268;-67
2021/10/03 03:52:12;;;;;;;20.90;11.00;;;4.70;99.90;;;;;;4124583;28;20700;-68
2021/10/03 03:54:14;;;;;;;17.33;9.47;;;4.70;99.90;;;;;;4123801;28;20272;-65
2021/10/03 03:56:15;;;;;;;17.53;10.83;;;4.70;99.90;;;;;;4125020;28;20972;-67
2021/10/03 03:58:16;;;;;;;20.17;11.43;;;4.70;99.90;;;;;;4124003;28;20367;-67
2021/10/03 04:00:18;;;;;;;20.13;11.33;;;4.60;99.90;;;;;;4124369;28;20971;-67
2021/10/03 04:02:19;;;;;;;21.80;10.93;;;4.60;99.90;;;;;;4123931;28;20251;-66
2021/10/03 04:04:20;;;;;;;22.83;12.60;;;4.50;99.90;;;;;;4124308;28;20272;-67
2021/10/03 04:06:22;;;;;;;19.10;10.93;;;4.50;99.90;;;;;;4124240;28;20307;-66
2021/10/03 04:08:23;;;;;;;20.60;11.07;;;4.50;99.90;;;;;;4123884;28;20412;-66
2021/10/03 04:10:24;;;;;;;19.37;10.80;;;4.40;99.90;;;;;;4123652;28;20304;-67
2021/10/03 04:12:25;;;;;;;20.13;11.33;;;4.40;99.90;;;;;;4123289;28;20343;-67
2021/10/03 04:14:26;;;;;;;23.33;11.87;;;4.40;99.90;;;;;;4122289;28;20370;-66
2021/10/03 04:16:28;;;;;;;22.63;11.47;;;4.30;99.90;;;;;;4123755;28;20275;-66
2021/10/03 04:18:29;;;;;;;20.13;11.53;;;4.30;99.90;;;;;;4124227;28;21142;-67
2021/10/03 04:20:30;;;;;;;22.50;11.80;;;4.20;99.90;;;;;;4123340;28;20284;-67
2021/10/03 04:22:32;;;;;;;22.90;13.20;;;4.00;99.90;;;;;;4123940;28;20276;-66
2021/10/03 04:24:33;;;;;;;23.77;13.83;;;4.00;99.90;;;;;;4122971;28;20692;-65
2021/10/03 04:26:34;;;;;;;25.80;14.63;;;4.00;99.90;;;;;;4122740;28;20847;-66
2021/10/03 04:28:35;;;;;;;28.97;15.47;;;3.90;99.90;;;;;;4123311;28;20334;-67
2021/10/03 04:30:37;;;;;;;27.60;15.07;;;4.00;99.90;;;;;;4124002;28;20689;-67
2021/10/03 04:32:38;;;;;;;22.47;14.17;;;4.00;99.90;;;;;;4123743;28;20314;-66
2021/10/03 04:34:39;;;;;;;27.03;14.57;;;4.10;99.90;;;;;;4123881;28;20272;-66
2021/10/03 04:36:40;;;;;;;28.87;13.83;;;4.10;99.90;;;;;;4123596;28;20283;-65
2021/10/03 04:38:41;;;;;;;31.20;15.33;;;4.10;99.90;;;;;;4123704;28;20276;-65
2021/10/03 04:40:43;;;;;;;27.70;15.03;;;4.20;99.90;;;;;;4123531;28;20292;-66
2021/10/03 04:42:45;;;;;;;30.07;15.07;;;4.30;99.90;;;;;;4123718;28;20788;-66
2021/10/03 04:44:47;;;;;;;27.87;15.13;;;4.30;99.90;;;;;;4123198;28;20280;-65
2021/10/03 04:46:48;;;;;;;31.67;14.83;;;4.40;99.90;;;;;;4123453;28;20770;-65
2021/10/03 04:48:49;;;;;;;28.77;16.30;;;4.60;99.90;;;;;;4123558;28;20362;-66
2021/10/03 04:50:51;;;;;;;28.83;15.37;;;4.80;99.90;;;;;;4122029;28;20311;-66
2021/10/03 04:52:52;;;;;;;28.27;16.50;;;4.90;99.90;;;;;;4122483;28;20320;-66
2021/10/03 04:54:54;;;;;;;30.50;16.33;;;5.10;99.90;;;;;;4123006;28;20322;-67
2021/10/03 04:56:55;;;;;;;28.30;15.80;;;5.20;99.90;;;;;;4123394;28;20260;-66
2021/10/03 04:58:56;;;;;;;28.93;14.93;;;5.40;99.90;;;;;;4122827;28;20734;-67
2021/10/03 05:00:58;;;;;;;29.30;15.93;;;5.60;99.90;;;;;;4123401;28;20331;-66
2021/10/03 05:02:59;;;;;;;26.40;16.30;;;5.70;99.90;;;;;;4123067;28;20330;-66
2021/10/03 05:05:00;;;;;;;30.93;16.27;;;5.90;99.90;;;;;;4122835;28;20323;-66
2021/10/03 05:07:01;;;;;;;26.73;15.43;;;6.20;99.90;;;;;;4123518;28;20030;-67
2021/10/03 05:09:03;;;;;;;25.63;14.70;;;6.50;99.90;;;;;;4123072;28;20030;-65
2021/10/03 05:11:05;;;;;;;23.40;15.53;;;6.60;99.90;;;;;;4123478;28;20108;-66
2021/10/03 05:13:06;;;;;;;29.57;14.83;;;6.70;99.90;;;;;;4122934;28;20080;-66
2021/10/03 05:15:08;;;;;;;28.17;14.43;;;7.20;99.90;;;;;;4122689;28;20112;-67
2021/10/03 05:17:09;;;;;;;28.00;15.57;;;7.60;99.90;;;;;;4122366;28;20178;-66
2021/10/03 05:19:10;;;;;;;25.60;15.73;;;8.10;99.90;;;;;;4123258;28;20102;-67
2021/10/03 05:21:11;;;;;;;25.57;14.70;;;8.50;99.90;;;;;;4122703;28;20026;-66
2021/10/03 05:23:12;;;;;;;26.70;14.60;;;8.90;99.90;;;;;;4122729;28;20054;-67
2021/10/03 05:25:13;;;;;;;26.37;14.83;;;9.40;99.90;;;;;;4122476;28;20483;-67
2021/10/03 05:27:14;;;;;;;26.83;15.07;;;9.80;99.90;;;;;;4122607;28;20046;-66
2021/10/03 05:29:16;;;;;;;25.30;14.33;;;10.30;99.90;;;;;;4122329;28;20030;-67
2021/10/03 05:31:17;;;;;;;24.93;14.87;;;10.70;99.90;;;;;;4122694;28;20073;-67
2021/10/03 05:33:18;;;;;;;25.83;14.63;;;10.90;99.90;;;;;;4122847;28;20806;-67
2021/10/03 05:35:19;;;;;;;25.37;15.37;;;11.20;99.90;;;;;;4123120;28;20034;-68
2021/10/03 05:37:20;;;;;;;22.13;13.43;;;11.50;99.90;;;;;;4121641;28;20062;-69
2021/10/03 05:39:21;;;;;;;21.23;14.03;;;11.70;99.90;;;;;;4123027;28;20050;-68
2021/10/03 05:41:23;;;;;;;23.53;12.40;;;11.90;99.90;;;;;;4126316;28;20046;-68
2021/10/03 05:43:24;;;;;;;17.50;12.37;;;12.10;99.90;;;;;;4126042;28;20549;-66
2021/10/03 05:45:25;;;;;;;22.13;12.07;;;12.30;99.90;;;;;;4114531;28;20042;-67
2021/10/03 05:47:27;;;;;;;21.70;11.73;;;12.60;99.90;;;;;;4110087;28;20031;-68
2021/10/03 05:49:28;;;;;;;23.67;11.97;;;13.00;99.90;;;;;;4110471;28;20074;-66
2021/10/03 05:51:29;;;;;;;19.27;12.20;;;13.40;99.90;;;;;;4109702;28;20156;-66
2021/10/03 05:53:30;;;;;;;19.27;11.73;;;13.80;99.90;;;;;;4116505;28;20031;-68
2021/10/03 05:55:32;;;;;;;18.00;11.18;;;13.90;99.90;;;;;;4125538;28;20034;-68
2021/10/03 05:57:33;;;;;;;16.38;10.82;;;14.00;99.90;;;;;;4125614;28;20132;-67
2021/10/03 05:59:34;;;;;;;18.02;11.23;;;14.20;99.90;;;;;;4124924;28;20039;-67
2021/10/03 06:01:35;;;;;;;23.08;12.30;;;14.50;99.90;;;;;;4126036;28;20031;-67
2021/10/03 06:03:37;;;;;;;17.42;11.85;;;14.60;99.90;;;;;;4125603;28;20038;-67
2021/10/03 06:05:38;;;;;;;18.85;11.95;;;14.60;99.90;;;;;;4124049;28;20100;-67
2021/10/03 06:07:39;;;;;;;16.58;12.05;;;14.40;99.90;;;;;;4125239;28;20077;-67
2021/10/03 06:09:40;;;;;;;19.75;13.20;;;14.00;99.90;;;;;;4125435;28;20042;-67
2021/10/03 06:11:41;;;;;;;23.50;11.77;;;13.70;99.90;;;;;;4125736;28;20046;-67
2021/10/03 06:13:42;;;;;;;19.98;12.30;;;13.80;99.90;;;;;;4125740;28;20046;-66
2021/10/03 06:15:45;;;;;;;21.98;12.25;;;13.50;99.90;;;;;;4125872;28;20046;-67
2021/10/03 06:17:46;;;;;;;21.42;12.60;;;13.80;99.90;;;;;;4124484;28;20093;-67
2021/10/03 06:19:47;;;;;;;23.03;11.87;;;14.20;99.90;;;;;;4125143;28;20042;-68
2021/10/03 06:21:48;;;;;;;20.92;12.25;;;14.40;99.90;;;;;;4125426;28;20034;-67
2021/10/03 06:23:50;;;;;;;21.20;11.70;;;14.50;99.90;;;;;;4125763;28;20099;-67
2021/10/03 06:25:51;;;;;;;26.23;13.13;;;14.30;99.90;;;;;;4125454;28;20085;-69
2021/10/03 06:27:52;;;;;;;22.90;12.37;;;13.80;99.90;;;;;;4125251;28;20139;-67
2021/10/03 06:29:54;;;;;;;20.37;12.17;;;13.70;99.90;;;;;;4125284;28;20502;-64
2021/10/03 06:31:55;;;;;;;23.03;12.60;;;13.70;99.90;;;;;;4123647;28;20093;-68
2021/10/03 06:33:57;;;;;;;20.47;11.37;;;13.80;99.90;;;;;;4124725;28;20034;-67
2021/10/03 06:35:58;;;;;;;22.50;13.17;;;13.70;99.90;;;;;;4125285;28;20117;-66
2021/10/03 06:37:59;;;;;;;17.47;11.83;;;13.60;99.90;;;;;;4124577;28;20497;-65
2021/10/03 06:40:00;;;;;;;21.50;12.57;;;13.40;99.90;;;;;;4125286;28;20116;-67
2021/10/03 06:42:02;;;;;;;23.03;13.47;;;13.50;99.90;;;;;;4124998;28;20089;-67
2021/10/03 06:44:03;;;;;;;26.13;14.73;;;13.90;99.90;;;;;;4125189;28;20490;-65
2021/10/03 06:46:07;;;;;;;20.17;12.43;;;14.30;99.90;;;;;;4124439;28;20038;-67
2021/10/03 06:48:09;;;;;;;24.60;13.57;;;14.00;99.90;;;;;;4124869;28;20108;-66
2021/10/03 06:50:11;;;;;;;27.10;14.07;;;13.70;99.90;;;;;;4124967;28;20077;-67
2021/10/03 06:52:12;;;;;;;28.60;14.33;;;13.70;99.90;;;;;;4125119;28;20039;-67
2021/10/03 06:54:13;;;;;;;21.93;14.67;;;13.20;99.90;;;;;;4125266;28;20112;-64
2021/10/03 06:56:14;;;;;;;30.50;15.77;;;12.90;99.90;;;;;;4125243;28;20085;-68
2021/10/03 06:58:16;;;;;;;31.80;15.63;;;12.90;99.90;;;;;;4124085;28;20050;-64
2021/10/03 07:00:17;;;;;;;25.10;15.27;;;12.90;99.90;;;;;;4124718;28;20030;-64
2021/10/03 07:02:20;;;;;;;28.00;14.43;;;12.90;99.90;;;;;;4124847;28;20038;-64
2021/10/03 07:04:21;;;;;;;30.33;15.03;;;12.80;99.90;;;;;;4124867;28;20033;-66
2021/10/03 07:06:22;;;;;;;21.27;12.80;;;12.40;99.90;;;;;;4124906;28;20049;-68
2021/10/03 07:08:23;;;;;;;21.93;12.90;;;12.40;99.90;;;;;;4122880;28;20046;-66
2021/10/03 07:10:24;;;;;;;30.37;15.20;;;12.50;99.90;;;;;;4124515;28;20088;-67
2021/10/03 07:12:25;;;;;;;27.53;15.37;;;12.60;99.90;;;;;;4124497;28;20035;-65
2021/10/03 07:14:27;;;;;;;26.93;17.50;;;12.40;99.90;;;;;;4125005;28;20034;-62
2021/10/03 07:16:28;;;;;;;30.27;15.93;;;12.50;99.90;;;;;;4123971;28;20097;-66
2021/10/03 07:18:29;;;;;;;28.10;16.57;;;12.80;99.90;;;;;;4124677;28;20085;-65
2021/10/03 07:20:30;;;;;;;33.20;18.70;;;13.00;99.90;;;;;;4124290;28;20026;-66
2021/10/03 07:22:31;;;;;;;30.77;18.50;;;12.50;99.90;;;;;;4124291;28;20104;-65
2021/10/03 07:24:32;;;;;;;27.37;17.73;;;12.20;99.90;;;;;;4124094;28;20928;-67
2021/10/03 07:26:34;;;;;;;24.43;16.67;;;12.30;99.90;;;;;;4123908;28;20034;-67
2021/10/03 07:28:35;;;;;;;23.90;14.73;;;12.60;99.90;;;;;;4124263;28;20034;-64
2021/10/03 07:30:36;;;;;;;24.00;14.90;;;12.50;99.90;;;;;;4124536;28;20046;-66
2021/10/03 07:32:37;;;;;;;22.73;14.73;;;12.60;99.90;;;;;;4124791;28;20034;-70
2021/10/03 07:34:39;;;;;;;22.87;14.47;;;12.60;99.90;;;;;;4123021;28;20502;-64
2021/10/03 07:36:40;;;;;;;26.73;14.60;;;12.90;99.90;;;;;;4124342;28;20491;-65
2021/10/03 07:38:41;;;;;;;27.47;14.57;;;12.90;99.90;;;;;;4122059;28;20077;-66
2021/10/03 07:40:43;;;;;;;22.53;13.43;;;12.70;99.90;;;;;;4123429;28;20474;-66
2021/10/03 07:42:44;;;;;;;24.37;14.23;;;12.60;99.90;;;;;;4124258;28;20042;-64
2021/10/03 07:44:45;;;;;;;17.23;12.30;;;12.50;99.90;;;;;;4124483;28;20430;-66
2021/10/03 07:46:46;;;;;;;20.23;11.93;;;12.40;99.90;;;;;;4124277;28;20046;-64
2021/10/03 07:48:48;;;;;;;18.57;11.33;;;12.60;99.90;;;;;;4124288;28;20108;-63
2021/10/03 07:50:49;;;;;;;18.03;10.40;;;12.80;99.90;;;;;;4124302;28;20026;-61
2021/10/03 07:52:51;;;;;;;15.33;10.57;;;12.50;99.90;;;;;;4123498;28;20050;-67
2021/10/03 07:54:52;;;;;;;20.17;10.80;;;12.50;99.90;;;;;;4124091;28;20117;-63
2021/10/03 07:56:53;;;;;;;18.27;10.27;;;12.60;99.90;;;;;;4123140;28;20069;-62
2021/10/03 07:58:54;;;;;;;16.97;10.70;;;12.50;99.90;;;;;;4123669;28;20878;-61
2021/10/03 08:00:56;;;;;;;18.97;9.83;;;12.50;99.90;;;;;;4122690;28;20031;-64
2021/10/03 08:02:57;;;;;;;18.93;10.20;;;12.60;99.90;;;;;;4123276;28;20582;-64
2021/10/03 08:04:58;;;;;;;12.47;8.47;;;12.80;99.90;;;;;;4122152;28;20091;-63
2021/10/03 08:06:59;;;;;;;17.90;10.00;;;12.90;99.90;;;;;;4122423;28;20031;-63
2021/10/03 08:09:01;;;;;;;16.67;11.00;;;12.80;99.90;;;;;;4122971;28;20046;-61
2021/10/03 08:11:02;;;;;;;17.60;9.53;;;12.90;99.90;;;;;;4117605;28;20031;-64
2021/10/03 08:13:03;;;;;;;18.20;8.77;;;13.00;99.90;;;;;;4110975;28;20097;-61
2021/10/03 08:15:05;;;;;;;14.17;9.17;;;13.20;99.90;;;;;;4121337;28;20468;-64
2021/10/03 08:17:06;;;;;;;18.20;9.40;;;13.50;99.90;;;;;;4122997;28;20042;-64
2021/10/03 08:19:07;;;;;;;13.63;8.17;;;13.80;99.90;;;;;;4123559;28;20875;-65
2021/10/03 08:21:08;;;;;;;13.73;7.80;;;14.00;99.90;;;;;;4123341;28;20022;-65
2021/10/03 08:23:10;;;;;;;10.37;7.33;;;14.10;99.90;;;;;;4122886;28;20046;-61
2021/10/03 08:25:12;;;;;;;8.93;5.73;;;14.30;99.90;;;;;;4119813;28;20026;-61
2021/10/03 08:27:13;;;;;;;11.30;6.53;;;14.40;99.90;;;;;;4107545;28;20415;-65
2021/10/03 08:29:14;;;;;;;10.53;5.97;;;14.50;99.90;;;;;;4107859;28;20022;-65
2021/10/03 08:31:15;;;;;;;8.93;5.33;;;14.50;99.90;;;;;;4106849;28;20047;-66
2021/10/03 08:33:16;;;;;;;14.50;6.13;;;14.60;99.90;;;;;;4107023;28;20043;-60
2021/10/03 08:35:17;;;;;;;11.53;5.23;;;14.60;99.90;;;;;;4106920;28;20039;-62
2021/10/03 08:37:18;;;;;;;10.23;5.67;;;14.60;99.90;;;;;;4107321;28;20526;-61
2021/10/03 08:39:20;;;;;;;9.77;6.20;;;14.50;99.90;;;;;;4106556;28;20110;-61
2021/10/03 08:41:21;;;;;;;9.87;6.07;;;14.40;99.90;;;;;;4106745;28;20066;-64
2021/10/03 08:43:23;;;;;;;8.67;5.37;;;14.50;99.90;;;;;;4107137;28;20137;-63
2021/10/03 08:45:24;;;;;;;8.50;5.53;;;14.60;99.90;;;;;;4106756;28;20042;-64
2021/10/03 08:47:25;;;;;;;9.23;4.80;;;14.70;99.90;;;;;;4107124;28;20384;-64
2021/10/03 08:49:27;;;;;;;14.00;4.87;;;14.70;99.90;;;;;;4107163;28;20486;-60
2021/10/03 08:51:28;;;;;;;8.97;5.20;;;14.90;99.90;;;;;;4106448;28;20176;-61
2021/10/03 08:53:29;;;;;;;10.20;4.70;;;15.10;99.90;;;;;;4107484;28;20081;-63
2021/10/03 08:55:31;;;;;;;9.47;4.27;;;15.30;99.90;;;;;;4106985;28;20097;-64
2021/10/03 08:57:32;;;;;;;6.77;4.77;;;15.60;99.90;;;;;;4111176;28;20114;-62
2021/10/03 08:59:34;;;;;;;6.60;3.70;;;15.80;99.90;;;;;;4119405;28;20081;-62
2021/10/03 09:01:55;;;;;;;9.65;3.38;;;15.90;99.80;;;;;;4123031;28;20046;-63
2021/10/03 09:04:00;;;;;;;6.95;4.18;;;16.00;99.00;;;;;;4122872;28;20042;-62
2021/10/03 09:06:03;;;;;;;7.63;3.88;;;16.00;99.40;;;;;;4122889;28;20072;-64
2021/10/03 09:08:17;;;;;;;5.97;3.33;;;15.90;99.30;;;;;;4123046;28;20041;-67
2021/10/03 09:10:18;;;;;;;7.80;3.75;;;15.80;99.10;;;;;;4122841;28;20018;-65
2021/10/03 09:12:35;;;;;;;9.68;3.92;;;15.80;99.00;;;;;;4122945;28;20109;-67
2021/10/03 09:14:36;;;;;;;7.22;3.45;;;15.70;98.40;;;;;;4122019;28;20094;-63
2021/10/03 09:16:38;;;;;;;8.30;3.80;;;15.70;98.80;;;;;;4121082;28;20050;-63
2021/10/03 09:18:46;;;;;;;6.45;3.35;;;15.80;98.80;;;;;;4122769;28;20030;-65
2021/10/03 09:20:47;;;;;;;6.13;3.53;;;15.90;98.20;;;;;;4122648;28;20054;-67
2021/10/03 09:22:59;;;;;;;4.20;3.28;;;15.90;98.30;;;;;;4122411;28;20096;-64
2021/10/03 09:25:00;;;;;;;9.00;3.55;;;15.90;97.60;;;;;;4122741;28;20022;-65
2021/10/03 09:27:06;;;;;;;6.00;3.67;;;15.90;97.70;;;;;;4122644;28;20042;-64
2021/10/03 09:29:21;;;;;;;5.50;3.10;;;15.80;97.50;;;;;;4123034;28;20050;-64
2021/10/03 09:31:22;;;;;;;7.80;3.45;;;15.70;96.90;;;;;;4122333;28;20122;-64
2021/10/03 09:33:24;;;;;;;4.50;3.22;;;15.70;97.50;;;;;;4122630;28;20096;-64
2021/10/03 09:35:31;;;;;;;8.10;3.58;;;15.70;97.20;;;;;;4122407;28;20062;-63
2021/10/03 09:37:32;;;;;;;6.57;3.03;;;15.80;97.00;;;;;;4122641;28;20034;-64
2021/10/03 09:39:41;;;;;;;6.45;3.42;;;15.70;97.30;;;;;;4122757;28;20117;-62
2021/10/03 09:41:42;;;;;;;6.80;3.17;;;15.80;97.20;;;;;;4122622;28;20073;-64
2021/10/03 09:43:58;;;;;;;7.97;3.55;;;15.90;97.10;;;;;;4122769;28;20026;-65
2021/10/03 09:45:59;;;;;;;3.88;3.13;;;16.00;96.80;;;;;;4122058;28;20463;-64
2021/10/03 09:48:05;;;;;;;6.43;3.83;;;16.10;97.00;;;;;;4122668;28;20035;-64
2021/10/03 09:50:08;;;;;;;4.05;3.33;;;16.20;97.10;;;;;;4122391;28;20029;-63
2021/10/03 09:52:09;;;;;;;6.32;3.38;;;16.20;96.90;;;;;;4122128;28;20127;-64
2021/10/03 09:54:11;;;;;;;5.05;3.55;;;16.30;96.90;;;;;;4122224;28;20101;-64
2021/10/03 09:56:13;;;;;;;4.57;3.97;;;16.30;96.80;;;;;;4122490;28;20046;-63
2021/10/03 09:58:17;;;;;;;6.10;3.70;;;16.30;96.90;;;;;;4122030;28;20035;-63
2021/10/03 10:00:18;;;;;;;7.25;4.15;;;16.30;96.80;;;;;;4122421;28;20034;-63
2021/10/03 10:02:19;;;;;;;9.10;4.47;;;16.20;97.20;;;;;;4121261;28;20038;-63
2021/10/03 10:04:20;;;;;;;8.45;3.80;;;16.10;97.20;;;;;;4120938;28;20046;-63
2021/10/03 10:06:22;;;;;;;7.70;4.57;;;16.20;97.00;;;;;;4121207;28;20102;-64
2021/10/03 10:08:24;;;;;;;6.28;4.70;;;16.40;97.00;;;;;;4122690;28;20066;-64
2021/10/03 10:10:27;;;;;;;9.45;4.20;;;16.30;96.90;;;;;;4122083;28;20446;-63
2021/10/03 10:12:29;;;;;;;7.15;4.18;;;16.40;97.00;;;;;;4122149;28;20058;-64
2021/10/03 10:14:39;;;;;;;31.85;4.25;;;16.60;97.10;;;;;;4122094;28;20140;-64
2021/10/03 10:16:42;;;;;;;6.93;3.47;;;16.70;96.80;;;;;;4122535;28;20537;-64
2021/10/03 10:18:43;;;;;;;5.97;3.65;;;16.80;96.50;;;;;;4122321;28;20383;-63
2021/10/03 10:20:44;;;;;;;9.05;3.33;;;16.80;96.60;;;;;;4121513;28;20857;-64
2021/10/03 10:23:09;;;;;;;5.57;3.75;;;16.90;96.60;;;;;;4122210;28;20090;-65
2021/10/03 10:25:19;;;;;;;10.88;5.35;;;16.90;96.30;;;;;;4124105;28;20042;-66